Time;durP1;ratioP1;P1;durP2;ratioP2;P2;SDS_P1;SDS_P2;PMS_P1;PMS_P2;Temp;Humidity;BMP_temperature;BMP_pressure;BME280_temperature;BME280_humidity;BME280_pressure;Samples;Min_cycle;Max_cycle;Signal;HPM_P1;HPM_P2
2022/05/01 06:35:38;;;;;;;9.32;6.00;;;;;;;18.07;42.72;100206.75;4454594;26;35098;-83
2022/05/01 06:38:07;;;;;;;10.95;5.97;;;;;;;18.26;42.61;100204.62;4429051;32;33493;-82
2022/05/01 06:40:35;;;;;;;11.00;4.82;;;;;;;18.42;44.14;100208.56;4426948;32;33566;-82
2022/05/01 06:43:04;;;;;;;8.38;5.20;;;;;;;18.57;44.61;100206.09;4437898;32;33641;-87
2022/05/01 06:45:32;;;;;;;8.55;5.40;;;;;;;18.88;42.89;100209.44;4441063;32;33999;-87
2022/05/01 06:48:01;;;;;;;10.05;5.53;;;;;;;18.64;43.82;100211.53;4443050;32;33949;-90
2022/05/01 06:50:31;;;;;;;8.40;5.62;;;;;;;18.88;43.10;100206.66;4456962;32;34023;-89
2022/05/01 06:52:59;;;;;;;12.13;6.53;;;;;;;18.86;42.35;100214.41;4435718;32;34438;-77
2022/05/01 06:55:26;;;;;;;9.13;6.15;;;;;;;18.96;42.37;100212.66;4429583;32;34168;-93
2022/05/01 06:57:57;;;;;;;9.32;5.55;;;;;;;19.01;41.42;100215.53;4427952;32;34265;-90
2022/05/01 07:00:25;;;;;;;9.15;5.95;;;;;;;18.95;40.88;100212.91;4428402;32;33402;-89
2022/05/01 07:02:57;;;;;;;11.98;5.40;;;;;;;18.99;42.00;100205.75;4416595;32;32877;-92
2022/05/01 07:05:26;;;;;;;13.18;5.93;;;;;;;18.95;42.10;100201.78;4416490;32;34321;-91
2022/05/01 07:07:54;;;;;;;8.88;5.82;;;;;;;18.91;43.45;100203.37;4428418;32;33371;-92
2022/05/01 07:10:22;;;;;;;9.50;4.82;;;;;;;19.00;41.58;100204.66;4427188;32;31752;-91
2022/05/01 07:12:50;;;;;;;7.53;5.20;;;;;;;19.03;40.88;100201.38;4426149;32;33382;-91
2022/05/01 07:15:20;;;;;;;8.88;4.87;;;;;;;19.03;42.25;100201.38;4426095;32;34375;-90
2022/05/01 07:17:50;;;;;;;10.55;5.10;;;;;;;19.26;40.88;100192.84;4439655;32;34128;-90
2022/05/01 07:20:20;;;;;;;10.60;5.30;;;;;;;19.14;42.64;100188.47;4452682;32;33467;-89
2022/05/01 07:22:53;;;;;;;8.52;4.80;;;;;;;19.41;41.20;100195.88;4427345;32;33762;-90
2022/05/01 07:25:21;;;;;;;9.27;5.30;;;;;;;19.63;40.90;100193.16;4429161;32;34354;-96
2022/05/01 07:27:48;;;;;;;8.68;5.45;;;;;;;19.71;40.21;100189.94;4428742;32;32439;-93
2022/05/01 07:30:16;;;;;;;8.13;4.78;;;;;;;19.87;40.68;100181.81;4429358;32;32196;-92
2022/05/01 07:32:44;;;;;;;9.13;4.40;;;;;;;19.82;40.45;100185.34;4428873;32;33666;-91
2022/05/01 07:35:12;;;;;;;9.35;4.20;;;;;;;19.87;40.77;100179.00;4428011;32;33642;-92
2022/05/01 07:37:39;;;;;;;6.20;4.00;;;;;;;19.96;40.85;100180.25;4428059;32;33932;-93
2022/05/01 07:40:09;;;;;;;6.93;4.32;;;;;;;20.13;40.01;100181.03;4427575;32;33424;-92
2022/05/01 07:42:36;;;;;;;8.18;4.25;;;;;;;20.17;39.36;100186.91;4428211;32;33745;-91
2022/05/01 07:45:04;;;;;;;6.20;3.83;;;;;;;20.23;40.70;100178.34;4427769;32;33802;-91
2022/05/01 07:47:32;;;;;;;6.25;3.92;;;;;;;20.26;39.48;100179.78;4428661;32;33808;-95
2022/05/01 07:50:02;;;;;;;7.60;4.15;;;;;;;20.47;39.45;100176.16;4441661;32;33577;-91
2022/05/01 07:52:32;;;;;;;7.18;4.18;;;;;;;20.73;38.96;100166.09;4428328;32;33431;-91
2022/05/01 07:55:01;;;;;;;5.90;3.70;;;;;;;20.88;38.60;100176.53;4428872;32;34406;-92
2022/05/01 07:57:29;;;;;;;6.32;2.92;;;;;;;20.78;38.58;100177.31;4440964;32;34788;-91
2022/05/01 08:00:02;;;;;;;6.40;3.58;;;;;;;20.98;38.96;100177.47;4428432;32;33875;-92
2022/05/01 08:04:27;;;;;;;5.57;3.25;;;;;;;21.14;39.85;100184.03;4428623;32;33685;-91
2022/05/01 08:05:24;;;;;;;6.78;3.00;;;;;;;21.07;37.87;100169.47;4443537;32;35152;-93
2022/05/01 08:07:52;;;;;;;5.15;3.17;;;;;;;21.25;37.33;100166.28;4438554;32;32525;-91
2022/05/01 08:10:20;;;;;;;5.35;3.12;;;;;;;21.05;38.11;100166.09;4428069;32;33175;-92
2022/05/01 08:12:48;;;;;;;6.40;3.08;;;;;;;21.35;38.12;100158.00;4428192;32;33767;-93
2022/05/01 08:15:20;;;;;;;5.12;2.60;;;;;;;21.50;36.56;100150.81;4428264;32;34275;-92
2022/05/01 08:17:48;;;;;;;5.43;2.90;;;;;;;21.39;36.46;100160.25;4428568;32;33872;-92
2022/05/01 08:23:06;;;;;;;7.68;2.85;;;;;;;21.60;36.67;100159.25;4443199;32;33574;-91
2022/05/01 08:25:36;;;;;;;5.03;2.50;;;;;;;21.93;35.96;100156.09;4440183;32;34050;-91
2022/05/01 08:28:06;;;;;;;4.95;2.33;;;;;;;21.73;34.90;100155.97;4427143;32;33538;-92
2022/05/01 08:30:35;;;;;;;4.75;2.05;;;;;;;21.88;34.89;100156.06;4438256;32;33167;-92
2022/05/01 08:33:04;;;;;;;4.40;2.30;;;;;;;21.92;34.42;100157.19;4427162;32;33525;-92
2022/05/01 08:35:32;;;;;;;6.70;2.72;;;;;;;22.27;33.54;100158.47;4427524;32;33297;-92
2022/05/01 08:38:02;;;;;;;4.82;2.47;;;;;;;22.19;34.41;100147.81;4440631;32;34206;-92
2022/05/01 08:40:29;;;;;;;6.40;3.90;;;;;;;22.59;32.80;100149.88;4443244;32;32742;-91
2022/05/01 08:42:59;;;;;;;4.97;2.97;;;;;;;22.52;34.30;100150.16;4443354;32;34517;-91
2022/05/01 08:45:41;;;;;;;5.05;2.53;;;;;;;22.65;33.39;100141.22;4443174;32;34609;-91
2022/05/01 08:48:12;;;;;;;7.18;3.03;;;;;;;22.58;32.32;100149.03;4443311;32;34143;-93
2022/05/01 08:50:40;;;;;;;4.18;1.95;;;;;;;22.64;32.85;100139.53;4443463;32;33242;-93
2022/05/01 08:53:08;;;;;;;6.32;2.30;;;;;;;22.63;32.36;100139.81;4430210;32;33062;-93
2022/05/01 08:55:38;;;;;;;3.97;2.00;;;;;;;22.60;31.75;100141.22;4442858;32;33634;-92
2022/05/01 08:58:07;;;;;;;4.37;2.08;;;;;;;22.74;31.14;100140.69;4442774;32;32741;-92
2022/05/01 09:00:36;;;;;;;3.85;1.83;;;;;;;23.02;31.62;100133.72;4455882;32;33360;-92
2022/05/01 09:03:04;;;;;;;3.75;1.83;;;;;;;23.04;30.46;100128.66;4443227;32;33573;-93
2022/05/01 09:05:32;;;;;;;3.40;1.75;;;;;;;23.08;30.99;100125.03;4430101;32;34757;-91
2022/05/01 09:08:02;;;;;;;4.22;2.03;;;;;;;23.26;31.04;100118.00;4455862;32;34798;-91
2022/05/01 09:10:34;;;;;;;4.15;2.10;;;;;;;23.30;30.15;100125.56;4443106;32;33290;-92
2022/05/01 09:13:02;;;;;;;5.90;2.62;;;;;;;23.41;29.37;100126.38;4443267;32;34669;-93
2022/05/01 09:15:36;;;;;;;3.92;2.00;;;;;;;23.75;30.58;100118.19;4442630;32;34402;-92
2022/05/01 09:18:11;;;;;;;6.55;2.42;;;;;;;23.95;30.66;100115.31;4455713;32;34761;-93
2022/05/01 09:21:00;;;;;;;6.07;3.40;;;;;;;23.99;30.48;100112.78;4442988;32;33264;-93
2022/05/01 09:23:39;;;;;;;5.07;2.10;;;;;;;24.37;29.94;100105.56;4442540;32;33112;-92
2022/05/01 09:26:10;;;;;;;4.43;2.12;;;;;;;24.43;27.96;100115.63;4442790;32;33605;-94
2022/05/01 09:28:52;;;;;;;4.82;2.53;;;;;;;24.54;29.52;100116.41;4442773;32;33774;-93
2022/05/01 09:31:48;;;;;;;5.97;2.42;;;;;;;24.75;27.90;100109.50;4442692;32;33066;-93
2022/05/01 09:34:23;;;;;;;4.00;1.92;;;;;;;24.80;28.02;100111.41;4442594;32;34033;-94
2022/05/01 09:36:52;;;;;;;5.47;2.35;;;;;;;25.05;28.07;100108.44;4455145;32;34113;-95
2022/05/01 09:39:23;;;;;;;5.72;2.58;;;;;;;24.99;28.03;100112.44;4431930;32;33364;-94
2022/05/01 09:41:52;;;;;;;6.47;2.40;;;;;;;25.17;27.13;100103.28;4444557;32;33107;-95
2022/05/01 09:44:22;;;;;;;5.20;2.50;;;;;;;25.07;26.18;100108.97;4444496;32;34487;-93
2022/05/01 09:46:54;;;;;;;4.57;2.28;;;;;;;25.17;26.85;100106.09;4444500;32;34546;-93
2022/05/01 09:49:22;;;;;;;5.28;2.70;;;;;;;25.04;27.99;100091.87;4445344;32;32996;-95
2022/05/01 09:51:56;;;;;;;5.20;2.60;;;;;;;24.89;27.79;100101.25;4449197;32;33302;-95
2022/05/01 09:54:26;;;;;;;7.28;2.53;;;;;;;25.17;28.18;100097.66;4434354;32;32490;-95
2022/05/01 09:56:57;;;;;;;5.60;2.50;;;;;;;25.42;26.56;100098.50;4446193;32;33936;-94
2022/05/01 09:59:27;;;;;;;5.82;2.40;;;;;;;25.55;26.70;100100.63;4447775;32;33141;-94
2022/05/01 10:02:01;;;;;;;5.55;2.58;;;;;;;25.25;25.92;100097.03;4445303;32;33217;-94
2022/05/01 10:04:35;;;;;;;4.37;2.55;;;;;;;25.30;26.34;100095.28;4445145;32;33953;-92
2022/05/01 10:07:08;;;;;;;6.78;2.78;;;;;;;25.51;25.69;100091.09;4459075;32;34529;-94
2022/05/01 10:09:36;;;;;;;4.57;2.65;;;;;;;25.60;25.48;100090.16;4457935;32;34100;-94
2022/05/01 10:12:06;;;;;;;5.00;2.80;;;;;;;25.18;26.59;100079.66;4444169;32;32649;-92
2022/05/01 10:14:34;;;;;;;4.78;2.70;;;;;;;25.24;26.38;100078.47;4444272;32;33921;-94
2022/05/01 10:17:03;;;;;;;5.95;2.50;;;;;;;25.50;26.92;100079.03;4431763;32;33352;-92
2022/05/01 10:19:33;;;;;;;11.10;8.07;;;;;;;25.66;26.89;100076.06;4444084;32;33265;-94
2022/05/01 10:22:01;;;;;;;5.75;2.60;;;;;;;25.67;26.49;100066.50;4471425;32;33469;-94
2022/05/01 10:24:29;;;;;;;5.28;2.83;;;;;;;25.73;24.19;100071.75;4431475;32;32975;-95
2022/05/01 10:27:00;;;;;;;5.15;2.78;;;;;;;26.04;23.80;100071.34;4444107;32;33038;-93
2022/05/01 10:32:20;;;;;;;6.28;2.90;;;;;;;25.92;23.31;100071.81;4444221;32;33807;-93
2022/05/01 10:33:00;;;;;;;5.65;2.78;;;;;;;26.11;23.97;100071.81;4459361;32;33140;-93
2022/05/01 10:35:54;;;;;;;5.03;2.40;;;;;;;26.47;24.82;100063.72;4444041;32;33369;-91
2022/05/01 10:38:42;;;;;;;6.05;3.33;;;;;;;26.36;23.15;100065.03;4456921;32;34893;-92
2022/05/01 10:41:11;;;;;;;7.80;4.32;;;;;;;25.82;24.15;100060.69;4444219;32;34614;-94
2022/05/01 10:43:58;;;;;;;5.25;3.15;;;;;;;25.86;23.78;100056.97;4445502;32;33930;-93
2022/05/01 10:46:30;;;;;;;7.18;4.43;;;;;;;26.01;24.22;100060.69;4443888;32;33912;-93
2022/05/01 10:49:34;;;;;;;5.62;2.75;;;;;;;26.13;24.52;100061.94;4443376;32;33741;-93
2022/05/01 10:52:18;;;;;;;12.57;3.95;;;;;;;25.89;24.79;100058.34;4444014;32;33910;-91
2022/05/01 10:54:50;;;;;;;6.00;2.83;;;;;;;25.74;24.74;100050.94;4444274;32;33403;-92
2022/05/01 10:57:23;;;;;;;6.83;2.90;;;;;;;25.97;24.54;100045.59;4458495;32;33634;-93
2022/05/01 11:00:04;;;;;;;5.87;2.97;;;;;;;26.35;24.98;100036.03;4447848;32;35114;-92
2022/05/01 11:02:36;;;;;;;5.57;2.70;;;;;;;26.32;24.59;100049.88;4445042;32;34505;-92
2022/05/01 11:05:07;;;;;;;13.68;3.35;;;;;;;25.91;24.85;100050.44;4444167;32;33925;-92
2022/05/01 11:07:37;;;;;;;5.80;2.97;;;;;;;25.95;25.47;100047.88;4444605;32;34398;-93
2022/05/01 11:10:10;;;;;;;4.90;2.80;;;;;;;25.56;25.11;100038.47;4445023;32;34097;-91
2022/05/01 11:12:40;;;;;;;6.10;3.10;;;;;;;25.72;25.63;100049.56;4444424;32;33099;-93
2022/05/01 11:15:09;;;;;;;7.35;3.15;;;;;;;25.30;24.94;100039.94;4457256;32;33301;-90
2022/05/01 11:17:36;;;;;;;5.20;2.83;;;;;;;24.99;25.14;100038.56;4444451;32;33892;-93
2022/05/01 11:20:24;;;;;;;4.43;2.75;;;;;;;25.01;25.22;100034.34;4444526;32;33439;-92
2022/05/01 11:22:52;;;;;;;6.75;3.08;;;;;;;25.37;25.67;100026.34;4444278;32;33994;-92
2022/05/01 11:25:39;;;;;;;6.28;3.62;;;;;;;25.63;25.14;100032.50;4444393;32;33402;-92
2022/05/01 11:28:09;;;;;;;17.45;8.90;;;;;;;25.81;24.72;100028.94;4444017;32;34636;-92
2022/05/01 11:30:37;;;;;;;14.05;8.80;;;;;;;26.10;23.44;100030.75;4444438;32;33013;-90
2022/05/01 11:33:10;;;;;;;6.10;2.75;;;;;;;26.07;23.65;100017.28;4431744;32;33039;-91
2022/05/01 11:35:51;;;;;;;5.25;3.05;;;;;;;25.71;23.29;100016.97;4458244;32;33949;-91
2022/05/01 11:38:38;;;;;;;6.07;3.20;;;;;;;25.66;22.84;100017.88;4473352;32;34087;-91
2022/05/01 11:41:07;;;;;;;6.62;3.28;;;;;;;25.81;23.27;100012.06;4458367;32;34562;-91
2022/05/01 11:43:35;;;;;;;5.87;3.22;;;;;;;25.47;23.94;100006.56;4460412;32;33836;-91
2022/05/01 11:46:04;;;;;;;4.90;3.00;;;;;;;25.35;24.06;100002.53;4444474;32;33798;-93
2022/05/01 11:48:32;;;;;;;6.15;2.67;;;;;;;25.10;23.98;100009.25;4447290;32;32855;-92
2022/05/01 11:51:00;;;;;;;6.10;3.30;;;;;;;24.94;24.44;100006.56;4445148;32;32516;-93
2022/05/01 11:53:28;;;;;;;10.35;3.62;;;;;;;24.72;24.61;100000.59;4444783;32;33672;-91
2022/05/01 12:04:39;;;;;;;9.20;5.62;;;;;;;24.49;25.12;99996.62;4445666;32;33628;-92
2022/05/01 12:07:21;;;;;;;7.20;3.78;;;;;;;24.11;25.44;100003.88;4443462;32;32572;-91
2022/05/01 12:09:53;;;;;;;12.27;4.32;;;;;;;24.17;25.39;100004.69;4432109;32;33730;-91
2022/05/01 12:12:26;;;;;;;7.28;3.00;;;;;;;24.48;24.70;99986.53;4444442;32;34397;-92
2022/05/01 12:14:55;;;;;;;5.97;3.33;;;;;;;24.71;25.15;99989.66;4443810;32;34522;-90
2022/05/01 12:17:22;;;;;;;7.22;2.90;;;;;;;24.77;25.31;99991.28;4444180;32;33325;-92
2022/05/01 12:19:55;;;;;;;6.85;3.40;;;;;;;25.10;25.23;99984.81;4443994;32;33429;-90
2022/05/01 12:22:30;;;;;;;5.65;3.05;;;;;;;25.09;25.88;99983.13;4456950;32;34626;-91
2022/05/01 12:25:02;;;;;;;6.47;2.85;;;;;;;25.44;24.77;99979.03;4444089;32;33875;-93
2022/05/01 12:27:30;;;;;;;4.85;3.00;;;;;;;25.64;24.21;99977.97;4444392;32;33134;-92
2022/05/01 12:30:00;;;;;;;5.55;2.70;;;;;;;25.81;24.86;99972.69;4456858;32;33772;-91
2022/05/01 12:32:30;;;;;;;5.15;2.90;;;;;;;25.74;24.30;99966.59;4456798;32;34216;-92
2022/05/01 12:35:00;;;;;;;7.22;2.97;;;;;;;25.95;24.36;99963.50;4444105;32;34300;-91
2022/05/01 12:37:34;;;;;;;6.93;2.85;;;;;;;25.85;24.21;99965.31;4443833;32;33394;-91
2022/05/01 12:40:09;;;;;;;5.65;3.10;;;;;;;25.84;24.04;99966.47;4443649;32;33905;-93
2022/05/01 12:45:37;;;;;;;5.60;3.22;;;;;;;25.68;24.95;99955.72;4445483;32;33032;-92
2022/05/01 12:48:06;;;;;;;6.15;3.20;;;;;;;25.61;24.82;99954.09;4443721;32;33324;-85
2022/05/01 12:50:40;;;;;;;5.53;2.95;;;;;;;25.78;24.31;99953.59;4442248;32;33909;-81
2022/05/01 12:53:27;;;;;;;5.47;3.20;;;;;;;25.57;24.59;99944.59;4466375;32;34518;-92
2022/05/01 12:55:55;;;;;;;;;;;;;;;25.49;24.74;99941.59;4436728;32;34214;-92
2022/05/01 12:58:32;;;;;;;5.82;3.15;;;;;;;25.54;24.62;99935.91;4409573;32;31876;-92
2022/05/01 13:01:05;;;;;;;8.57;5.72;;;;;;;25.33;25.05;99926.13;4436523;32;33123;-93
2022/05/01 13:03:37;;;;;;;6.93;3.37;;;;;;;25.24;25.38;99928.75;4439910;32;34357;-91
2022/05/01 13:06:15;;;;;;;7.50;3.95;;;;;;;24.94;25.53;99933.56;4438348;32;34566;-92
2022/05/01 13:08:52;;;;;;;6.43;3.62;;;;;;;24.72;26.31;99926.78;4429352;32;33685;-91
2022/05/01 13:11:23;;;;;;;5.82;3.08;;;;;;;24.91;26.58;99925.72;4448964;32;34830;-91
2022/05/01 13:14:17;;;;;;;6.87;3.20;;;;;;;25.15;25.84;99919.31;4458650;32;36078;-92
2022/05/01 13:16:49;;;;;;;4.68;2.80;;;;;;;25.53;24.85;99906.97;4438202;32;32361;-92
2022/05/01 13:19:19;;;;;;;5.12;3.10;;;;;;;25.66;25.14;99910.22;4429397;32;32991;-91
2022/05/01 13:21:53;;;;;;;5.22;3.10;;;;;;;25.73;24.10;99893.81;4450006;32;34461;-93
2022/05/01 13:24:29;;;;;;;7.55;3.05;;;;;;;25.86;24.43;99895.84;4433912;32;35410;-93
2022/05/01 13:27:00;;;;;;;5.82;3.08;;;;;;;25.60;24.29;99893.38;4419799;32;32929;-92
2022/05/01 13:29:31;;;;;;;4.95;2.95;;;;;;;25.59;24.20;99886.09;4426993;32;33382;-90
2022/05/01 13:32:03;;;;;;;5.43;3.00;;;;;;;25.45;24.56;99889.97;4414921;32;33838;-93
2022/05/01 13:34:32;;;;;;;5.50;3.17;;;;;;;25.16;24.35;99890.09;4426006;32;34477;-93
2022/05/01 13:37:02;;;;;;;6.10;2.80;;;;;;;24.93;25.00;99889.75;4426868;32;34681;-92
2022/05/01 13:45:07;;;;;;;5.85;2.80;;;;;;;24.93;25.27;99877.69;4441464;32;34044;-91
2022/05/01 13:47:38;;;;;;;5.78;3.15;;;;;;;24.70;25.28;99889.78;4439553;32;33932;-92
2022/05/01 13:50:06;;;;;;;10.43;4.87;;;;;;;24.78;25.18;99878.72;4424851;32;31999;-92
2022/05/01 13:52:34;;;;;;;5.93;3.12;;;;;;;25.01;25.39;99879.03;4426978;32;33605;-93
2022/05/01 13:55:07;;;;;;;5.03;2.90;;;;;;;25.02;24.93;99877.91;4407764;32;32927;-91
2022/05/01 13:57:37;;;;;;;5.50;2.97;;;;;;;24.99;25.08;99882.16;4407694;32;33285;-92
2022/05/01 14:00:06;;;;;;;5.45;3.30;;;;;;;24.87;25.21;99879.72;4426483;32;32350;-91
2022/05/01 14:02:38;;;;;;;7.55;5.30;;;;;;;24.71;25.00;99880.19;4427220;32;31333;-91
2022/05/01 14:05:08;;;;;;;6.57;2.90;;;;;;;24.69;24.74;99877.72;4426879;32;34376;-92
2022/05/01 14:07:36;;;;;;;7.25;3.00;;;;;;;24.35;24.30;99880.59;4427019;32;34136;-91
2022/05/01 14:10:04;;;;;;;4.60;2.62;;;;;;;24.28;24.96;99874.47;4414407;32;32045;-91
2022/05/01 14:12:32;;;;;;;7.15;3.00;;;;;;;24.19;24.92;99874.25;4426765;32;33741;-92
2022/05/01 14:14:59;;;;;;;4.93;2.78;;;;;;;24.51;24.65;99868.09;4426723;32;34460;-92
2022/05/01 14:17:27;;;;;;;5.15;2.60;;;;;;;24.32;25.04;99872.75;4426713;32;33113;-92
2022/05/01 14:20:02;;;;;;;6.20;3.03;;;;;;;24.40;24.98;99860.91;4428301;32;33309;-92
2022/05/01 14:22:31;;;;;;;6.32;3.15;;;;;;;24.52;24.95;99866.94;4426864;32;34693;-91
2022/05/01 14:25:03;;;;;;;4.93;2.30;;;;;;;24.52;24.66;99869.75;4428396;32;35498;-92
2022/05/01 14:27:30;;;;;;;6.28;3.12;;;;;;;24.58;25.33;99864.94;4429100;32;33767;-93
2022/05/01 14:29:58;;;;;;;6.57;2.70;;;;;;;24.49;25.34;99861.94;4441758;32;33207;-93
2022/05/01 14:32:36;;;;;;;5.25;2.65;;;;;;;24.75;25.10;99853.19;4429136;32;33877;-90
2022/05/01 14:35:14;;;;;;;5.70;2.58;;;;;;;24.68;24.79;99847.16;4423904;32;34945;-89
2022/05/01 14:38:07;;;;;;;5.00;2.67;;;;;;;24.76;24.42;99849.25;4425726;32;34141;-88
2022/05/01 14:40:38;;;;;;;4.78;2.53;;;;;;;24.52;23.89;99847.31;4429636;32;34166;-88
2022/05/01 14:43:16;;;;;;;5.62;3.22;;;;;;;24.42;24.68;99844.59;4429394;32;33576;-88
2022/05/01 14:45:56;;;;;;;6.45;2.97;;;;;;;24.53;24.41;99836.91;4441687;32;34284;-88
2022/05/01 14:48:29;;;;;;;6.25;2.65;;;;;;;24.61;24.66;99839.06;4429412;32;33367;-89
2022/05/01 14:51:01;;;;;;;4.22;2.45;;;;;;;24.63;24.61;99829.22;4429471;32;33006;-89
2022/05/01 14:53:30;;;;;;;9.13;4.05;;;;;;;24.55;24.83;99838.28;4416498;32;34147;-89
2022/05/01 14:55:58;;;;;;;6.10;2.60;;;;;;;24.44;25.16;99835.91;4433121;32;33767;-91
2022/05/01 15:06:57;;;;;;;6.22;2.58;;;;;;;24.06;25.61;99834.81;4453568;32;34910;-90
2022/05/01 15:09:31;;;;;;;6.30;2.62;;;;;;;23.98;25.52;99828.75;4443418;32;33809;-89
2022/05/01 15:12:03;;;;;;;5.03;2.62;;;;;;;24.23;25.76;99829.62;4432330;32;33225;-90
2022/05/01 15:14:31;;;;;;;8.85;2.70;;;;;;;24.08;25.08;99829.75;4428428;32;33689;-90
2022/05/01 15:17:07;;;;;;;4.53;2.60;;;;;;;24.08;25.12;99824.16;4428713;32;35043;-90
2022/05/01 15:19:54;;;;;;;5.65;2.40;;;;;;;24.06;25.34;99827.25;4416086;32;33152;-91
2022/05/01 15:22:32;;;;;;;4.70;2.40;;;;;;;24.20;25.30;99821.78;4429164;32;33054;-86
2022/05/01 15:25:11;;;;;;;4.15;2.22;;;;;;;24.06;25.24;99815.19;4416053;32;32711;-91
2022/05/01 15:28:04;;;;;;;4.30;2.47;;;;;;;24.28;24.92;99821.19;4441835;32;34056;-89
2022/05/01 15:30:39;;;;;;;5.30;2.70;;;;;;;24.00;24.31;99819.22;4441401;32;33829;-92
2022/05/01 15:33:42;;;;;;;4.55;2.53;;;;;;;24.14;24.62;99809.78;4435590;32;32985;-92
2022/05/01 15:36:27;;;;;;;6.57;2.35;;;;;;;24.09;25.49;99806.19;4440643;32;32796;-89
2022/05/01 15:39:15;;;;;;;4.97;2.50;;;;;;;23.97;25.15;99815.03;4451651;32;34676;-91
2022/05/01 15:41:47;;;;;;;5.20;2.40;;;;;;;23.84;25.03;99802.53;4438977;32;34564;-91
2022/05/01 15:44:20;;;;;;;6.37;2.72;;;;;;;23.84;25.46;99807.28;4455100;32;33437;-91
2022/05/01 15:46:55;;;;;;;5.35;2.67;;;;;;;23.69;26.03;99808.25;4442652;32;33927;-92
2022/05/01 15:55:06;;;;;;;5.30;2.87;;;;;;;23.45;26.26;99802.50;4435623;32;34144;-88
2022/05/01 15:57:34;;;;;;;4.37;2.40;;;;;;;23.47;26.47;99800.25;4442213;32;34203;-93
2022/05/01 16:00:19;;;;;;;5.43;2.85;;;;;;;23.47;25.98;99800.25;4453526;32;35029;-84
2022/05/01 16:02:52;;;;;;;8.82;2.60;;;;;;;23.62;25.79;99810.56;4453353;32;34852;-85
2022/05/01 16:05:24;;;;;;;5.68;2.50;;;;;;;23.37;25.64;99799.53;4439296;32;32862;-86
2022/05/01 16:08:14;;;;;;;5.75;2.75;;;;;;;23.39;25.62;99800.06;4449531;32;33967;-87
2022/05/01 16:11:10;;;;;;;7.25;2.70;;;;;;;23.39;25.71;99802.87;4461409;32;33968;-85
2022/05/01 16:13:52;;;;;;;4.07;2.28;;;;;;;23.25;25.51;99792.31;4441502;32;33906;-87
2022/05/01 16:16:42;;;;;;;4.70;2.53;;;;;;;23.00;25.64;99786.84;4441346;32;32868;-85
2022/05/01 16:19:29;;;;;;;4.93;2.40;;;;;;;23.22;25.23;99790.09;4456949;32;33725;-85
2022/05/01 16:22:06;;;;;;;4.45;2.58;;;;;;;23.21;26.24;99791.22;4443565;32;33131;-87
2022/05/01 16:24:43;;;;;;;4.35;2.45;;;;;;;23.08;25.83;99794.66;4444568;32;34745;-86
2022/05/01 16:27:23;;;;;;;5.75;2.42;;;;;;;23.13;25.87;99796.59;4443443;32;32900;-87
2022/05/01 16:29:57;;;;;;;4.60;2.65;;;;;;;22.93;25.79;99789.97;4455036;32;32080;-86
2022/05/01 16:32:39;;;;;;;6.50;2.55;;;;;;;23.14;25.65;99782.31;4429030;32;33099;-88
2022/05/01 16:35:11;;;;;;;4.80;2.83;;;;;;;23.05;25.52;99791.59;4441412;32;34640;-87
2022/05/01 16:37:41;;;;;;;7.70;4.85;;;;;;;23.03;25.56;99794.69;4438079;32;31786;-87
2022/05/01 16:40:16;;;;;;;6.62;2.67;;;;;;;23.04;25.86;99790.75;4428366;32;34155;-89
2022/05/01 16:42:46;;;;;;;4.78;2.80;;;;;;;22.95;25.89;99800.88;4441181;32;34242;-88
2022/05/01 16:45:14;;;;;;;4.93;2.58;;;;;;;22.89;26.02;99793.63;4441515;32;33811;-89
2022/05/01 16:47:41;;;;;;;5.65;2.65;;;;;;;22.88;26.31;99787.19;4440693;32;33248;-92
2022/05/01 16:50:13;;;;;;;6.28;2.90;;;;;;;22.95;27.05;99792.50;4442011;32;34631;-91
2022/05/01 16:52:43;;;;;;;6.37;2.50;;;;;;;23.01;26.82;99799.72;4444205;32;33298;-90
2022/05/01 16:55:13;;;;;;;4.68;2.70;;;;;;;22.88;26.86;99803.16;4437752;32;34129;-88
2022/05/01 16:57:45;;;;;;;5.22;2.37;;;;;;;22.94;26.88;99804.81;4442062;32;34021;-93
2022/05/01 17:00:14;;;;;;;5.57;2.67;;;;;;;22.91;26.71;99802.59;4428162;32;32249;-91
2022/05/01 17:02:59;;;;;;;7.07;2.87;;;;;;;22.89;26.68;99800.06;4426087;32;34463;-90
2022/05/01 17:05:48;;;;;;;5.80;2.87;;;;;;;22.91;26.29;99803.41;4430306;32;32840;-91
2022/05/01 17:08:37;;;;;;;6.90;2.80;;;;;;;22.89;26.86;99816.03;4439294;32;34312;-89
2022/05/01 17:11:42;;;;;;;5.40;2.58;;;;;;;22.64;27.77;99814.16;4414670;32;32876;-92
2022/05/01 17:14:41;;;;;;;6.85;2.62;;;;;;;22.67;27.07;99816.38;4437604;32;34946;-91
2022/05/01 17:17:19;;;;;;;8.93;2.80;;;;;;;22.38;29.01;99812.56;4444456;32;32783;-91
2022/05/01 17:20:05;;;;;;;6.20;2.90;;;;;;;22.53;29.18;99809.72;4432189;32;33849;-92
2022/05/01 17:22:41;;;;;;;6.00;3.37;;;;;;;22.46;29.96;99817.56;4440920;32;33383;-91
2022/05/01 17:25:20;;;;;;;6.78;3.05;;;;;;;22.28;30.26;99816.22;4421592;32;35274;-91
2022/05/01 17:28:01;;;;;;;6.45;3.87;;;;;;;22.29;30.62;99817.87;4436025;32;32404;-90
2022/05/01 17:30:59;;;;;;;8.52;4.28;;;;;;;22.14;31.22;99823.50;4420826;32;32081;-92
2022/05/01 17:33:31;;;;;;;6.18;3.12;;;;;;;22.07;31.06;99826.63;4439767;32;33971;-90
2022/05/01 17:36:04;;;;;;;5.47;3.12;;;;;;;21.95;31.29;99817.66;4438871;32;35427;-91
2022/05/01 17:38:34;;;;;;;6.22;3.95;;;;;;;21.84;31.61;99832.75;4432081;32;32779;-91
2022/05/01 17:41:03;;;;;;;7.30;3.10;;;;;;;21.72;31.92;99830.22;4437206;32;34321;-91
2022/05/01 17:43:38;;;;;;;6.97;3.10;;;;;;;21.68;31.88;99831.91;4445284;32;34467;-90
2022/05/01 17:46:07;;;;;;;7.07;3.00;;;;;;;21.64;32.02;99836.38;4444154;32;34232;-89
2022/05/01 17:48:38;;;;;;;4.97;2.92;;;;;;;21.44;32.77;99833.56;4455997;32;33946;-92
2022/05/01 17:51:09;;;;;;;6.00;3.20;;;;;;;21.40;32.51;99838.03;4442041;32;33811;-92
2022/05/01 17:53:42;;;;;;;10.05;5.25;;;;;;;21.29;32.76;99828.78;4442227;32;33082;-90
2022/05/01 17:56:10;;;;;;;12.60;8.00;;;;;;;21.31;32.69;99837.72;4453258;32;34304;-91
2022/05/01 17:58:40;;;;;;;14.73;8.65;;;;;;;21.13;32.87;99838.22;4426825;32;32990;-92
2022/05/01 18:01:36;;;;;;;10.25;5.75;;;;;;;21.10;32.79;99847.13;4434253;32;33260;-87
2022/05/01 18:10:27;;;;;;;8.85;3.85;;;;;;;20.88;32.98;99850.09;4454933;32;33228;-86
2022/05/01 18:13:16;;;;;;;7.30;3.72;;;;;;;20.65;33.25;99848.63;4441848;32;33083;-93
2022/05/01 18:15:47;;;;;;;9.95;5.68;;;;;;;20.75;33.29;99856.22;4447206;32;34321;-94
2022/05/01 18:18:53;;;;;;;7.78;4.00;;;;;;;20.64;33.67;99858.94;4455769;32;35242;-92
2022/05/01 18:21:28;;;;;;;8.38;3.42;;;;;;;20.64;34.24;99861.75;4436118;32;32810;-95
2022/05/01 18:24:08;;;;;;;6.43;3.90;;;;;;;20.53;34.55;99867.53;4451330;32;34466;-94
2022/05/01 18:26:58;;;;;;;8.30;4.25;;;;;;;20.52;34.63;99866.69;4439499;32;33730;-93
2022/05/01 18:32:42;;;;;;;12.57;6.12;;;;;;;20.40;35.36;99874.41;4440617;32;32955;-92
2022/05/01 18:35:14;;;;;;;9.02;4.50;;;;;;;20.20;36.11;99869.50;4430231;32;33016;-84
2022/05/01 18:37:43;;;;;;;8.32;4.25;;;;;;;20.23;35.95;99870.91;4442410;32;34258;-88
2022/05/01 18:40:16;;;;;;;18.75;11.32;;;;;;;20.22;35.58;99877.59;4431842;32;34727;-92
2022/05/01 18:42:45;;;;;;;12.52;7.50;;;;;;;20.15;35.42;99874.22;4443729;32;32410;-91
2022/05/01 18:45:15;;;;;;;8.93;4.80;;;;;;;20.12;35.71;99880.34;4430024;32;34046;-90
2022/05/01 18:47:44;;;;;;;11.10;4.87;;;;;;;20.00;36.12;99881.38;4438691;32;34615;-92
2022/05/01 18:50:15;;;;;;;8.20;4.47;;;;;;;20.04;35.79;99890.88;4429163;32;32709;-91
2022/05/01 18:52:44;;;;;;;9.88;4.22;;;;;;;19.96;36.21;99885.78;4437654;32;33602;-91
2022/05/01 18:55:18;;;;;;;9.50;4.37;;;;;;;19.75;36.66;99883.91;4436704;32;33414;-92
2022/05/01 18:57:47;;;;;;;7.07;3.95;;;;;;;19.63;36.99;99888.81;4444546;32;33970;-92
2022/05/01 19:00:20;;;;;;;7.72;4.15;;;;;;;19.76;36.72;99891.16;4434148;32;33964;-92
2022/05/01 19:02:49;;;;;;;5.85;3.65;;;;;;;19.65;36.50;99886.59;4428845;32;33276;-94
2022/05/01 19:05:18;;;;;;;7.25;3.95;;;;;;;19.61;36.33;99894.66;4417897;32;33714;-93
2022/05/01 19:08:00;;;;;;;10.77;4.82;;;;;;;19.56;36.47;99897.38;4430707;32;33791;-91
2022/05/01 19:10:42;;;;;;;9.05;5.43;;;;;;;19.37;36.85;99896.06;4435598;32;34574;-90
2022/05/01 19:13:40;;;;;;;7.80;4.65;;;;;;;19.45;36.41;99905.88;4436497;32;33958;-91
2022/05/01 19:16:22;;;;;;;8.30;4.70;;;;;;;19.38;36.43;99906.91;4447720;32;31620;-90
2022/05/01 19:18:57;;;;;;;8.73;4.62;;;;;;;19.21;36.72;99906.16;4430799;32;31772;-92